Time;durP1;ratioP1;P1;durP2;ratioP2;P2;SDS_P1;SDS_P2;PMS_P1;PMS_P2;Temp;Humidity;BMP_temperature;BMP_pressure;BME280_temperature;BME280_humidity;BME280_pressure;Samples;Min_cycle;Max_cycle;Signal;HPM_P1;HPM_P2
2021/12/18 00:00:02;;;;;;;1037.03;967.97;;;;;;;7.44;64.83;103257.47;684769;28;46364;-71
2021/12/18 00:00:23;;;;;;;1045.18;975.95;;;;;;;7.44;65.13;103254.78;683851;28;68955;-71
2021/12/18 00:00:48;;;;;;;1050.40;980.78;;;;;;;7.45;65.09;103253.00;682677;28;113620;-71
2021/12/18 00:01:10;;;;;;;1053.50;984.30;;;;;;;7.45;64.98;103255.69;685477;28;22237;-71
2021/12/18 00:01:32;;;;;;;1014.53;946.70;;;;;;;7.45;64.91;103253.00;684668;28;46121;-71
2021/12/18 00:01:53;;;;;;;1024.60;956.50;;;;;;;7.42;64.75;103256.72;685061;28;46370;-71
2021/12/18 00:02:14;;;;;;;1038.78;970.00;;;;;;;7.44;64.85;103252.09;686259;28;22377;-71
2021/12/18 00:02:36;;;;;;;1042.78;973.40;;;;;;;7.44;65.11;103251.25;685936;28;18266;-71
2021/12/18 00:02:57;;;;;;;1037.97;968.88;;;;;;;7.44;65.00;103253.94;660246;28;62592;-70
2021/12/18 00:03:18;;;;;;;1015.47;947.30;;;;;;;7.39;64.92;103247.00;684623;28;22486;-71
2021/12/18 00:03:40;;;;;;;1015.13;946.63;;;;;;;7.35;65.21;103233.84;685483;28;22371;-71
2021/12/18 00:04:01;;;;;;;1030.55;961.22;;;;;;;7.43;64.91;103253.09;685312;28;23410;-71
2021/12/18 00:04:23;;;;;;;1047.72;978.03;;;;;;;7.43;65.30;103253.09;684714;28;46299;-71
2021/12/18 00:04:44;;;;;;;1027.88;959.25;;;;;;;7.43;65.19;103250.41;685000;28;45262;-71
2021/12/18 00:05:05;;;;;;;1019.33;951.33;;;;;;;7.44;65.32;103256.63;686851;28;21099;-70
2021/12/18 00:05:28;;;;;;;1027.15;958.85;;;;;;;7.43;65.04;103250.41;685491;28;23317;-71
2021/12/18 00:05:50;;;;;;;1028.78;960.13;;;;;;;7.43;65.38;103258.47;684936;28;46658;-71
2021/12/18 00:06:11;;;;;;;1037.13;967.60;;;;;;;7.44;65.43;103248.56;684560;28;46571;-71
2021/12/18 00:06:32;;;;;;;1015.92;947.08;;;;;;;7.44;65.19;103253.94;688070;28;31576;-71
2021/12/18 00:06:55;;;;;;;1016.17;947.83;;;;;;;7.45;65.37;103255.69;688123;28;22399;-71
2021/12/18 00:07:17;;;;;;;1029.38;960.05;;;;;;;7.45;65.08;103256.53;686512;28;69374;-71
2021/12/18 00:07:38;;;;;;;1040.05;970.10;;;;;;;7.45;65.21;103251.16;686487;28;46364;-70
2021/12/18 00:07:59;;;;;;;1022.20;952.53;;;;;;;7.49;65.33;103257.19;687912;28;21739;-70
2021/12/18 00:08:20;;;;;;;1004.00;935.00;;;;;;;7.49;65.18;103252.69;687769;28;22198;-71
2021/12/18 00:08:43;;;;;;;1013.00;943.65;;;;;;;7.48;65.26;103250.09;686036;28;14098;-71
2021/12/18 00:09:05;;;;;;;1030.10;960.10;;;;;;;7.46;65.07;103255.59;686150;28;1540;-71
2021/12/18 00:09:29;;;;;;;1031.55;961.38;;;;;;;7.48;65.03;103261.72;683801;28;67493;-71
2021/12/18 00:09:53;;;;;;;1050.03;979.15;;;;;;;7.49;65.07;103252.69;683533;28;90741;-71
2021/12/18 00:10:19;;;;;;;1077.50;999.90;;;;;;;7.49;65.39;103255.41;683971;28;69333;-70
2021/12/18 00:10:41;;;;;;;1075.78;999.90;;;;;;;7.50;65.14;103245.50;681771;28;136340;-70
2021/12/18 00:11:03;;;;;;;1073.25;999.90;;;;;;;7.48;65.22;103253.66;685080;28;43560;-71
2021/12/18 00:11:24;;;;;;;1077.35;999.90;;;;;;;7.48;65.03;103247.41;685516;28;44390;-70
2021/12/18 00:11:45;;;;;;;1077.90;999.90;;;;;;;7.52;64.91;103255.22;685997;28;21522;-71
2021/12/18 00:12:08;;;;;;;1076.15;999.90;;;;;;;7.52;65.08;103252.50;685778;28;20602;-71
2021/12/18 00:12:30;;;;;;;1083.05;999.90;;;;;;;7.50;65.29;103250.88;685802;28;19090;-71
2021/12/18 00:12:52;;;;;;;1082.70;999.90;;;;;;;7.52;65.33;103254.31;684094;28;46368;-71
2021/12/18 00:13:13;;;;;;;1075.15;999.90;;;;;;;7.53;65.04;103248.84;685391;28;33145;-71
2021/12/18 00:13:34;;;;;;;1036.75;966.40;;;;;;;7.54;65.26;103253.28;685396;28;22344;-70
2021/12/18 00:13:56;;;;;;;1039.68;969.28;;;;;;;7.55;65.03;103255.00;685841;28;21628;-70
2021/12/18 00:14:18;;;;;;;1039.65;969.13;;;;;;;7.53;65.27;103256.91;685292;28;23491;-71
2021/12/18 00:14:39;;;;;;;1035.43;965.10;;;;;;;7.55;65.04;103257.72;684049;28;67250;-70
2021/12/18 00:15:00;;;;;;;1035.28;964.83;;;;;;;7.53;65.24;103259.59;685873;28;22401;-71
2021/12/18 00:15:23;;;;;;;1043.03;972.22;;;;;;;7.53;65.13;103254.22;686404;28;22355;-71
2021/12/18 00:15:45;;;;;;;1028.22;958.15;;;;;;;7.53;65.12;103254.22;687284;28;3313;-71
2021/12/18 00:16:07;;;;;;;1016.75;947.15;;;;;;;7.52;64.82;103248.94;684319;28;69388;-71
2021/12/18 00:16:28;;;;;;;1029.65;959.40;;;;;;;7.51;65.21;103245.41;684345;28;5685;-70
2021/12/18 00:16:50;;;;;;;1035.47;965.10;;;;;;;7.53;64.92;103251.53;684268;28;22371;-70
2021/12/18 00:17:12;;;;;;;1046.22;975.53;;;;;;;7.52;64.90;103252.50;683979;28;67653;-71
2021/12/18 00:17:33;;;;;;;1046.03;975.38;;;;;;;7.51;65.29;103255.31;685654;28;45024;-71
2021/12/18 00:17:54;;;;;;;1026.67;956.63;;;;;;;7.52;65.00;103248.94;684618;28;21559;-71
2021/12/18 00:18:16;;;;;;;1030.13;960.05;;;;;;;7.49;65.26;103241.06;685304;28;45246;-71
2021/12/18 00:18:37;;;;;;;1042.90;972.20;;;;;;;7.51;65.06;103244.53;685580;28;42552;-71
2021/12/18 00:18:58;;;;;;;1050.65;979.90;;;;;;;7.51;64.86;103240.03;686119;28;22931;-71
2021/12/18 00:19:24;;;;;;;1055.43;984.42;;;;;;;7.51;65.08;103242.72;688215;28;22319;-71
2021/12/18 00:19:50;;;;;;;1055.47;984.65;;;;;;;7.49;65.13;103241.94;687504;28;59255;-71
2021/12/18 00:20:13;;;;;;;1051.63;980.80;;;;;;;7.50;65.13;103246.34;688155;28;44351;-70
2021/12/18 00:20:36;;;;;;;1063.82;992.35;;;;;;;7.48;64.80;103239.34;686897;28;67327;-71
2021/12/18 00:20:59;;;;;;;1072.03;999.90;;;;;;;7.50;65.06;103242.81;687535;28;69473;-70
2021/12/18 00:21:21;;;;;;;1073.13;999.90;;;;;;;7.49;65.14;103241.94;685298;28;69419;-71
2021/12/18 00:21:42;;;;;;;1069.22;997.60;;;;;;;7.46;65.19;103234.06;685783;28;45227;-71
2021/12/18 00:22:05;;;;;;;1048.75;977.97;;;;;;;7.48;65.10;103240.22;686542;28;1395;-70
2021/12/18 00:22:26;;;;;;;1046.88;976.13;;;;;;;7.49;64.95;103235.69;685681;28;43395;-71
2021/12/18 00:22:47;;;;;;;1034.70;964.35;;;;;;;7.48;65.17;103240.22;685113;28;22491;-71
2021/12/18 00:23:09;;;;;;;1041.07;970.53;;;;;;;7.47;65.30;103229.53;686267;28;22539;-70
2021/12/18 00:23:31;;;;;;;1047.47;976.67;;;;;;;7.48;64.92;103228.59;686064;28;22401;-71
2021/12/18 00:23:52;;;;;;;1056.25;985.15;;;;;;;7.42;65.22;103221.75;685463;28;46309;-71
2021/12/18 00:24:15;;;;;;;1066.25;994.65;;;;;;;7.48;65.29;103234.84;685490;28;46251;-70
2021/12/18 00:24:36;;;;;;;1071.68;999.47;;;;;;;7.49;65.09;103238.38;685545;28;45237;-70
2021/12/18 00:24:58;;;;;;;1059.72;988.42;;;;;;;7.43;65.47;103220.81;686414;28;23497;-70
2021/12/18 00:25:21;;;;;;;1025.35;955.30;;;;;;;7.49;65.39;103227.63;685504;28;46400;-71
2021/12/18 00:25:42;;;;;;;1026.50;956.55;;;;;;;7.46;65.32;103223.31;684752;28;69442;-71
2021/12/18 00:26:04;;;;;;;1037.28;967.03;;;;;;;7.49;65.06;103230.31;685143;28;46403;-71
2021/12/18 00:26:25;;;;;;;1039.03;968.58;;;;;;;7.49;65.29;103228.50;685454;28;44377;-70
2021/12/18 00:26:47;;;;;;;1036.28;966.05;;;;;;;7.48;64.95;103229.44;686981;28;22390;-70
2021/12/18 00:27:08;;;;;;;1031.97;961.87;;;;;;;7.47;65.44;103226.84;687414;28;22470;-71
2021/12/18 00:27:29;;;;;;;1036.70;966.30;;;;;;;7.50;65.28;103235.59;686167;28;45054;-71
2021/12/18 00:27:51;;;;;;;1041.32;970.63;;;;;;;7.47;65.38;103232.22;685705;28;22351;-70
2021/12/18 00:28:12;;;;;;;1044.13;973.40;;;;;;;7.50;65.42;103232.91;685957;28;46481;-71
2021/12/18 00:28:34;;;;;;;1040.72;970.20;;;;;;;7.51;65.20;103234.63;687320;28;23754;-70
2021/12/18 00:28:56;;;;;;;1020.42;950.80;;;;;;;7.52;65.55;103243.56;687163;28;46300;-70
2021/12/18 00:29:17;;;;;;;1016.45;946.85;;;;;;;7.51;65.08;103233.78;687737;28;44222;-71
2021/12/18 00:29:38;;;;;;;1023.85;954.22;;;;;;;7.51;65.41;103239.16;685928;28;23551;-70
2021/12/18 00:29:59;;;;;;;1028.57;958.65;;;;;;;7.50;65.03;103235.59;686389;28;22468;-71
2021/12/18 00:30:22;;;;;;;1042.95;972.42;;;;;;;7.44;65.25;103229.72;686596;28;23355;-71
2021/12/18 00:30:43;;;;;;;1026.33;956.53;;;;;;;7.49;65.10;103233.88;684642;28;69474;-71
2021/12/18 00:31:04;;;;;;;1017.28;947.92;;;;;;;7.52;65.01;103236.38;685327;28;44363;-71
2021/12/18 00:31:25;;;;;;;1028.82;958.90;;;;;;;7.52;65.34;103235.50;686648;28;23458;-70
2021/12/18 00:31:47;;;;;;;1029.90;959.90;;;;;;;7.53;65.29;103235.41;686225;28;23466;-71
2021/12/18 00:32:09;;;;;;;1041.55;971.10;;;;;;;7.53;65.48;103232.72;685524;28;45246;-71
2021/12/18 00:32:30;;;;;;;1022.97;953.40;;;;;;;7.52;65.45;103240.88;688230;28;48389;-71
2021/12/18 00:32:51;;;;;;;1022.47;953.13;;;;;;;7.49;65.31;103233.88;684752;28;22409;-71
2021/12/18 00:33:13;;;;;;;1031.75;962.05;;;;;;;7.52;65.08;103236.38;685978;28;24137;-71
2021/12/18 00:33:35;;;;;;;1043.95;973.67;;;;;;;7.52;65.37;103248.94;684522;28;67459;-71
2021/12/18 00:33:56;;;;;;;1058.65;987.90;;;;;;;7.51;65.35;103240.03;685833;28;22394;-71
2021/12/18 00:34:18;;;;;;;1068.90;997.72;;;;;;;7.50;65.52;103240.13;686241;28;22288;-70
2021/12/18 00:34:40;;;;;;;1032.10;962.35;;;;;;;7.51;65.20;103236.47;685541;28;46306;-70
2021/12/18 00:35:01;;;;;;;1023.88;954.33;;;;;;;7.48;65.36;103234.84;685057;28;43298;-70
2021/12/18 00:35:22;;;;;;;1032.75;962.85;;;;;;;7.49;65.41;103233.88;686588;28;22240;-70
2021/12/18 00:35:44;;;;;;;1042.53;972.05;;;;;;;7.51;65.21;103237.31;688272;28;22384;-71
2021/12/18 00:36:06;;;;;;;1027.93;958.08;;;;;;;7.51;65.50;103236.47;688670;28;21546;-71
2021/12/18 00:36:27;;;;;;;1021.93;952.47;;;;;;;7.52;65.11;103235.50;687399;28;67239;-70
2021/12/18 00:36:48;;;;;;;1028.43;958.67;;;;;;;7.50;65.50;103232.91;689370;28;7030;-71
2021/12/18 00:37:09;;;;;;;1037.75;967.47;;;;;;;7.53;65.41;103237.22;688663;28;22410;-71
2021/12/18 00:37:30;;;;;;;1046.00;975.50;;;;;;;7.48;65.19;103226.75;688411;28;22327;-70
2021/12/18 00:37:53;;;;;;;1033.70;963.67;;;;;;;7.53;65.29;103238.09;684859;28;22400;-70
2021/12/18 00:38:14;;;;;;;1026.15;956.35;;;;;;;7.54;65.65;103231.75;685593;28;38323;-71
2021/12/18 00:38:35;;;;;;;1026.10;956.30;;;;;;;7.54;65.29;103225.53;685695;28;29489;-71
2021/12/18 00:38:56;;;;;;;1029.82;960.22;;;;;;;7.54;65.10;103229.06;686165;28;22338;-70
2021/12/18 00:39:20;;;;;;;1033.97;965.08;;;;;;;7.53;65.42;103232.72;685714;28;23274;-71
2021/12/18 00:39:50;;;;;;;1014.65;946.90;;;;;;;7.54;65.30;103228.22;683521;28;92239;-71
2021/12/18 00:40:19;;;;;;;1018.58;950.30;;;;;;;7.52;65.01;103225.63;683979;28;81449;-70
2021/12/18 00:40:46;;;;;;;1022.73;955.27;;;;;;;7.54;65.36;103231.75;682632;28;135980;-70
2021/12/18 00:41:28;;;;;;;1031.07;963.20;;;;;;;7.50;65.04;103224.84;681141;28;110921;-71
2021/12/18 00:42:07;;;;;;;1022.20;955.13;;;;;;;7.54;65.01;103231.75;680455;28;137582;-70
2021/12/18 00:42:39;;;;;;;1041.50;973.50;;;;;;;7.50;64.89;103227.53;683039;28;137520;-70
2021/12/18 00:43:13;;;;;;;1047.63;979.75;;;;;;;7.55;65.17;103230.81;680818;28;156053;-70
2021/12/18 00:43:38;;;;;;;1018.05;951.58;;;;;;;7.55;64.97;103232.63;680939;28;159631;-70
2021/12/18 00:44:03;;;;;;;1036.72;969.70;;;;;;;7.53;65.28;103235.41;681951;28;137999;-71
2021/12/18 00:44:24;;;;;;;1036.80;969.97;;;;;;;7.54;64.90;103237.13;683935;28;92555;-70
2021/12/18 00:44:46;;;;;;;1041.57;974.10;;;;;;;7.51;65.05;103240.03;686210;28;22458;-71
2021/12/18 00:45:09;;;;;;;1046.03;978.47;;;;;;;7.52;65.27;103239.06;684946;28;69395;-71
2021/12/18 00:45:30;;;;;;;1028.82;962.38;;;;;;;7.50;65.05;103234.72;685331;28;43643;-71
2021/12/18 00:45:51;;;;;;;1032.15;965.22;;;;;;;7.52;64.92;103235.50;686099;28;22396;-71
2021/12/18 00:46:12;;;;;;;1030.73;963.77;;;;;;;7.52;65.32;103232.81;686397;28;22437;-70
2021/12/18 00:46:36;;;;;;;1039.47;972.38;;;;;;;7.49;65.20;103227.63;685472;28;46476;-70
2021/12/18 00:46:57;;;;;;;1038.57;971.88;;;;;;;7.52;65.04;103236.38;684817;28;67488;-70
2021/12/18 00:47:18;;;;;;;1036.10;969.13;;;;;;;7.49;65.38;103230.31;689061;28;21481;-71
2021/12/18 00:47:39;;;;;;;1039.10;971.70;;;;;;;7.50;65.10;103232.03;686853;28;24203;-70
2021/12/18 00:48:01;;;;;;;1030.03;963.35;;;;;;;7.51;65.47;103241.84;688018;28;44879;-70
2021/12/18 00:48:22;;;;;;;1029.47;963.20;;;;;;;7.49;65.46;103231.19;687875;28;46359;-70
2021/12/18 00:48:43;;;;;;;1034.72;967.83;;;;;;;7.53;65.38;103240.78;688694;28;23413;-71
2021/12/18 00:49:07;;;;;;;1036.80;970.13;;;;;;;7.53;65.15;103239.91;688008;28;22200;-71
2021/12/18 00:49:29;;;;;;;1037.78;971.75;;;;;;;7.47;65.20;103229.53;684520;28;67493;-71
2021/12/18 00:49:50;;;;;;;1038.00;972.53;;;;;;;7.49;65.30;103231.19;685595;28;45260;-70
2021/12/18 00:50:13;;;;;;;1042.38;976.55;;;;;;;7.50;65.45;103238.28;688624;28;22009;-71
2021/12/18 00:50:34;;;;;;;1038.63;972.55;;;;;;;7.50;65.16;103235.59;685864;28;90726;-70
2021/12/18 00:50:56;;;;;;;1046.03;978.58;;;;;;;7.50;65.03;103238.28;688932;28;21536;-70
2021/12/18 00:51:17;;;;;;;1060.35;991.20;;;;;;;7.45;65.41;103228.78;689210;28;1687;-70
2021/12/18 00:51:39;;;;;;;1037.38;969.65;;;;;;;7.49;65.27;103238.38;685572;28;23467;-71
2021/12/18 00:52:00;;;;;;;1019.85;954.28;;;;;;;7.50;65.13;103237.44;685715;28;22352;-70
2021/12/18 00:52:21;;;;;;;1020.22;954.53;;;;;;;7.45;65.21;103231.47;685987;28;21507;-71
2021/12/18 00:52:43;;;;;;;1030.68;964.20;;;;;;;7.43;65.53;103223.50;685292;28;22408;-70
2021/12/18 00:53:04;;;;;;;1034.25;966.88;;;;;;;7.47;65.50;103232.22;684209;28;69501;-71
2021/12/18 00:53:25;;;;;;;1024.22;957.03;;;;;;;7.49;65.36;103241.06;686217;28;22418;-71
2021/12/18 00:53:46;;;;;;;1011.47;945.00;;;;;;;7.50;65.30;103237.44;687105;28;23447;-70
2021/12/18 00:54:08;;;;;;;1010.85;944.95;;;;;;;7.49;65.29;103236.56;686834;28;22230;-71
2021/12/18 00:54:31;;;;;;;1021.03;954.55;;;;;;;7.50;65.60;103243.66;685423;28;46346;-71
2021/12/18 00:54:52;;;;;;;1025.10;958.85;;;;;;;7.48;65.39;103234.84;684416;28;69362;-71
2021/12/18 00:55:15;;;;;;;1027.50;960.97;;;;;;;7.49;65.26;103233.88;688917;28;23540;-70
2021/12/18 00:55:37;;;;;;;1021.45;954.50;;;;;;;7.48;65.13;103237.53;687530;28;44146;-70
2021/12/18 00:55:58;;;;;;;1013.88;947.60;;;;;;;7.49;65.49;103233.88;687239;28;69839;-70
2021/12/18 00:56:20;;;;;;;1026.00;959.72;;;;;;;7.46;65.47;103227.81;689550;28;21233;-70
2021/12/18 00:56:41;;;;;;;1020.42;954.38;;;;;;;7.50;65.44;103237.44;685349;28;23473;-71
2021/12/18 00:57:03;;;;;;;1011.00;945.75;;;;;;;7.48;65.41;103234.84;685766;28;21519;-70
2021/12/18 00:57:24;;;;;;;1011.80;947.00;;;;;;;7.51;65.50;103241.84;684860;28;68458;-70
2021/12/18 00:57:46;;;;;;;1016.03;951.13;;;;;;;7.52;65.68;103238.19;685667;28;5193;-71
2021/12/18 00:58:08;;;;;;;1023.97;958.45;;;;;;;7.55;65.51;103236.19;684895;28;46364;-71
2021/12/18 00:58:30;;;;;;;1033.85;967.80;;;;;;;7.53;65.30;103238.09;685712;28;22410;-69
2021/12/18 00:58:51;;;;;;;1008.40;943.25;;;;;;;7.57;65.87;103241.47;685791;28;45255;-69
2021/12/18 00:59:12;;;;;;;1013.28;947.92;;;;;;;7.57;65.31;103245.00;685545;28;44266;-69
2021/12/18 00:59:35;;;;;;;1019.03;952.75;;;;;;;7.59;65.57;103242.22;686057;28;24054;-69
2021/12/18 01:00:00;;;;;;;1026.82;959.65;;;;;;;7.57;65.29;103245.00;684921;28;45234;-69
2021/12/18 01:00:24;;;;;;;1038.03;970.20;;;;;;;7.53;65.56;103232.72;684339;28;132902;-69
2021/12/18 01:00:46;;;;;;;1008.38;941.83;;;;;;;7.60;65.32;103248.47;687186;28;69968;-69
2021/12/18 01:01:09;;;;;;;1001.53;935.20;;;;;;;7.56;65.09;103243.28;686970;28;67504;-69
2021/12/18 01:01:32;;;;;;;1006.00;939.97;;;;;;;7.58;65.07;103240.50;684865;28;69439;-69
2021/12/18 01:01:54;;;;;;;1013.90;947.60;;;;;;;7.57;65.19;103249.53;684465;28;67331;-69
2021/12/18 01:02:15;;;;;;;1026.13;959.63;;;;;;;7.57;65.38;103247.69;685359;28;46439;-69
2021/12/18 01:02:38;;;;;;;1017.83;951.58;;;;;;;7.49;65.31;103231.19;684411;28;13197;-69
2021/12/18 01:03:01;;;;;;;999.72;933.85;;;;;;;7.55;65.13;103240.69;682955;28;48890;-69
2021/12/18 01:03:22;;;;;;;1011.42;945.33;;;;;;;7.56;65.19;103247.81;682735;28;92255;-69
2021/12/18 01:03:45;;;;;;;1030.10;963.08;;;;;;;7.57;65.29;103249.53;687457;28;969;-69
2021/12/18 01:04:06;;;;;;;1037.50;970.17;;;;;;;7.57;65.17;103247.69;685846;28;66670;-69
2021/12/18 01:04:28;;;;;;;1045.30;977.80;;;;;;;7.66;65.06;103245.38;687406;28;22061;-69
2021/12/18 01:04:50;;;;;;;1047.30;979.60;;;;;;;7.68;65.35;103240.78;688049;28;45278;-69
2021/12/18 01:05:11;;;;;;;1022.53;955.88;;;;;;;7.62;65.40;103243.84;689119;28;13103;-69
2021/12/18 01:05:33;;;;;;;1026.05;959.40;;;;;;;7.66;65.35;103248.94;688829;28;22381;-69
2021/12/18 01:05:55;;;;;;;1035.63;968.80;;;;;;;7.65;65.33;103247.22;687985;28;45109;-69
2021/12/18 01:06:16;;;;;;;1034.15;966.72;;;;;;;7.65;64.87;103247.22;687437;28;45192;-69
2021/12/18 01:06:37;;;;;;;1031.28;964.17;;;;;;;7.62;65.28;103243.84;685980;28;23504;-69
2021/12/18 01:06:58;;;;;;;1033.35;967.30;;;;;;;7.64;65.06;103248.19;685140;28;45242;-69
2021/12/18 01:07:20;;;;;;;1035.65;970.22;;;;;;;7.64;65.31;103250.88;686174;28;23343;-69
2021/12/18 01:07:41;;;;;;;1031.82;968.65;;;;;;;7.64;65.13;103250.88;684138;28;46295;-69
2021/12/18 01:08:03;;;;;;;1006.35;946.08;;;;;;;7.64;65.08;103247.31;685802;28;22384;-69
2021/12/18 01:08:24;;;;;;;1011.83;950.95;;;;;;;7.61;64.89;103244.81;686292;28;23335;-69
2021/12/18 01:08:46;;;;;;;1020.45;958.35;;;;;;;7.61;65.31;103252.91;686042;28;21493;-69
2021/12/18 01:09:07;;;;;;;1028.53;965.38;;;;;;;7.60;65.16;103246.63;684764;28;68874;-69
2021/12/18 01:09:44;;;;;;;1027.90;964.35;;;;;;;7.58;65.15;103245.88;687082;28;22398;-69
2021/12/18 01:10:24;;;;;;;1032.75;969.03;;;;;;;7.59;65.02;103242.22;682813;28;136946;-69
2021/12/18 01:11:05;;;;;;;1029.05;965.08;;;;;;;7.57;65.25;103245.00;682911;28;137523;-69
2021/12/18 01:11:35;;;;;;;1053.93;988.63;;;;;;;7.57;65.07;103246.84;683724;28;160711;-69
2021/12/18 01:11:57;;;;;;;1066.35;999.83;;;;;;;7.54;65.43;103241.66;683382;28;145787;-69
2021/12/18 01:12:24;;;;;;;1068.57;999.90;;;;;;;7.56;65.31;103248.66;685210;28;68861;-69
2021/12/18 01:12:48;;;;;;;1010.05;946.35;;;;;;;7.65;65.30;103246.34;682309;28;137028;-69
2021/12/18 01:13:14;;;;;;;1023.95;958.80;;;;;;;7.63;65.23;103245.59;683252;28;92330;-69
2021/12/18 01:13:46;;;;;;;1025.82;960.92;;;;;;;7.54;65.38;103237.13;682929;28;116608;-69
2021/12/18 01:14:35;;;;;;;1021.08;956.50;;;;;;;7.64;65.02;103255.38;683290;28;137337;-69
2021/12/18 01:15:08;;;;;;;1032.03;967.15;;;;;;;7.61;65.00;103247.50;683756;28;136032;-69
2021/12/18 01:15:32;;;;;;;1022.83;958.37;;;;;;;7.62;65.09;103254.59;681578;28;142112;-69
2021/12/18 01:16:03;;;;;;;1013.47;949.03;;;;;;;7.60;65.28;103257.38;684842;28;115180;-69
2021/12/18 01:16:27;;;;;;;1015.58;951.50;;;;;;;7.60;65.26;103253.84;683923;28;110635;-71
2021/12/18 01:16:59;;;;;;;1025.15;960.50;;;;;;;7.58;65.29;103260.16;684674;28;91165;-70
2021/12/18 01:22:45;;;;;;;1037.97;972.72;;;;;;;7.56;65.57;103245.13;677548;28;136002;-70
2021/12/18 01:23:06;;;;;;;1039.20;974.17;;;;;;;7.59;65.34;103253.00;674694;28;180385;-71
2021/12/18 01:23:28;;;;;;;1044.10;979.03;;;;;;;7.62;65.29;103250.09;680174;29;22412;-70
2021/12/18 01:23:49;;;;;;;1029.90;966.75;;;;;;;7.63;65.66;103242.91;679562;29;45247;-70
2021/12/18 01:24:11;;;;;;;1017.53;956.05;;;;;;;7.65;65.74;103241.84;679900;29;24140;-71
2021/12/18 01:24:32;;;;;;;1008.25;946.45;;;;;;;7.66;65.55;103243.56;679403;29;46291;-71
2021/12/18 01:24:53;;;;;;;1012.60;950.03;;;;;;;7.68;65.37;103240.78;680139;29;23486;-70
2021/12/18 01:25:17;;;;;;;1016.90;954.45;;;;;;;7.67;65.41;103244.44;680295;29;21507;-70
2021/12/18 01:25:39;;;;;;;1026.43;963.97;;;;;;;7.68;65.23;103238.09;677208;28;113517;-70
2021/12/18 01:26:03;;;;;;;1026.05;963.15;;;;;;;7.70;65.07;103238.88;679585;28;45275;-71
2021/12/18 01:26:24;;;;;;;1028.28;965.22;;;;;;;7.70;65.31;103245.09;678563;29;69290;-71
2021/12/18 01:26:45;;;;;;;1030.75;967.88;;;;;;;7.69;65.41;103237.97;680653;29;21646;-70
2021/12/18 01:27:06;;;;;;;1015.83;953.63;;;;;;;7.71;65.07;103235.19;680084;29;22220;-71
2021/12/18 01:27:27;;;;;;;1025.07;962.10;;;;;;;7.71;65.05;103238.78;680836;29;1365;-71
2021/12/18 01:27:50;;;;;;;1015.42;952.90;;;;;;;7.70;65.26;103234.34;679175;28;22279;-71
2021/12/18 01:28:11;;;;;;;1020.60;957.88;;;;;;;7.73;65.05;103238.69;678357;29;69392;-71
2021/12/18 01:28:33;;;;;;;1032.50;969.00;;;;;;;7.69;65.14;103237.97;678773;29;1325;-71
2021/12/18 01:28:55;;;;;;;1038.32;974.75;;;;;;;7.71;65.12;103238.78;678900;29;4232;-71
2021/12/18 01:29:16;;;;;;;1044.93;980.72;;;;;;;7.71;64.94;103240.56;681098;29;1409;-70
2021/12/18 01:29:40;;;;;;;1041.17;977.17;;;;;;;7.71;64.83;103240.56;679811;29;44350;-70
2021/12/18 01:30:02;;;;;;;1023.80;960.83;;;;;;;7.72;65.10;103245.88;677583;29;92324;-70
2021/12/18 01:30:24;;;;;;;1032.00;968.65;;;;;;;7.75;65.00;103248.34;680045;29;46371;-70
2021/12/18 01:30:45;;;;;;;1044.80;981.10;;;;;;;7.75;64.86;103244.81;679855;28;46306;-71
2021/12/18 01:31:08;;;;;;;1053.68;989.88;;;;;;;7.75;64.82;103242.13;679918;28;45321;-70
2021/12/18 01:31:29;;;;;;;1058.78;994.38;;;;;;;7.78;65.14;103241.06;679750;29;44372;-70
2021/12/18 01:31:50;;;;;;;1060.57;995.47;;;;;;;7.76;64.86;103243.88;680000;28;45168;-70
2021/12/18 01:32:13;;;;;;;1059.93;995.10;;;;;;;7.76;64.78;103246.56;680090;29;22408;-70
2021/12/18 01:32:34;;;;;;;1057.15;992.80;;;;;;;7.75;64.66;103242.97;680041;28;45000;-69
2021/12/18 01:32:55;;;;;;;1058.28;994.17;;;;;;;7.73;64.60;103247.59;680305;28;4121;-69
2021/12/18 01:33:17;;;;;;;1019.83;956.55;;;;;;;7.72;64.76;103242.31;683373;28;22428;-69
2021/12/18 01:33:39;;;;;;;1012.25;949.90;;;;;;;7.72;64.83;103247.69;682713;28;45295;-69
2021/12/18 01:34:00;;;;;;;1010.80;949.00;;;;;;;7.70;64.85;103238.88;683039;28;44377;-70
2021/12/18 01:34:21;;;;;;;993.20;932.25;;;;;;;7.72;64.94;103234.25;683825;28;21524;-69
2021/12/18 01:34:42;;;;;;;1002.53;940.78;;;;;;;7.73;65.20;103241.38;683201;28;22495;-70
2021/12/18 01:35:06;;;;;;;1011.30;949.08;;;;;;;7.76;64.86;103236.66;681705;28;45216;-69
2021/12/18 01:35:27;;;;;;;1020.78;958.08;;;;;;;7.76;64.94;103233.09;678902;29;69463;-69
2021/12/18 01:35:48;;;;;;;1020.80;957.85;;;;;;;7.83;65.34;103236.25;680645;29;22396;-69
2021/12/18 01:36:10;;;;;;;1025.65;962.55;;;;;;;7.83;64.93;103237.13;680586;28;22347;-69
2021/12/18 01:36:32;;;;;;;1039.35;976.00;;;;;;;7.82;64.69;103232.72;679883;29;46327;-70
2021/12/18 01:36:53;;;;;;;1053.82;989.60;;;;;;;7.79;64.87;103230.22;679859;29;45241;-69
2021/12/18 01:37:14;;;;;;;1058.38;993.72;;;;;;;7.80;65.05;103234.63;680807;29;23946;-69
2021/12/18 01:37:36;;;;;;;1056.70;992.70;;;;;;;7.82;64.95;103234.53;680285;29;22486;-69
2021/12/18 01:37:58;;;;;;;1059.10;994.72;;;;;;;7.80;64.80;103234.63;679298;28;19456;-69
2021/12/18 01:38:21;;;;;;;1062.47;997.53;;;;;;;7.80;64.70;103231.94;680508;28;46231;-69
2021/12/18 01:38:42;;;;;;;1040.97;977.30;;;;;;;7.79;64.88;103224.84;679236;29;67459;-70
2021/12/18 01:39:04;;;;;;;997.70;936.10;;;;;;;7.74;64.77;103225.13;680519;28;23474;-70
2021/12/18 01:39:25;;;;;;;1003.28;941.63;;;;;;;7.78;64.60;103227.63;680453;28;45201;-70
2021/12/18 01:39:48;;;;;;;1011.97;949.50;;;;;;;7.75;64.93;103226.84;680740;28;23535;-69
2021/12/18 01:40:11;;;;;;;1019.60;957.00;;;;;;;7.74;64.81;103218.88;678853;29;69415;-69
2021/12/18 01:40:33;;;;;;;1013.55;951.53;;;;;;;7.77;64.83;103221.34;679090;29;69232;-69
2021/12/18 01:40:56;;;;;;;1000.17;938.55;;;;;;;7.75;64.71;103215.22;679074;29;69223;-69
2021/12/18 01:41:19;;;;;;;1014.03;951.85;;;;;;;7.74;64.76;103219.75;678125;29;33997;-69
2021/12/18 01:41:56;;;;;;;1010.65;949.08;;;;;;;7.78;64.91;103216.88;677649;29;67990;-70
2021/12/18 01:42:55;;;;;;;990.75;929.53;;;;;;;7.78;65.08;103222.25;675029;29;137510;-70
2021/12/18 01:44:52;;;;;;;1053.38;989.65;;;;;;;7.82;64.72;103219.25;671571;29;137691;-70
2021/12/18 01:45:20;;;;;;;987.83;927.00;;;;;;;7.79;64.84;103208.69;675808;29;159993;-69
2021/12/18 01:46:02;;;;;;;995.10;933.90;;;;;;;7.78;64.80;103209.66;676693;29;137785;-70
2021/12/18 01:46:40;;;;;;;1016.22;954.60;;;;;;;7.79;65.00;103207.81;677538;29;137450;-69
2021/12/18 01:51:12;;;;;;;1016.47;954.70;;;;;;;7.78;64.83;103211.47;676091;28;160132;-70
2021/12/18 01:51:18;;;;;;;1032.45;969.55;;;;;;;7.72;64.98;103210.88;678970;28;137349;-69
2021/12/18 01:51:58;;;;;;;1007.70;945.00;;;;;;;7.71;64.97;103214.56;680669;28;91389;-69
2021/12/18 01:52:32;;;;;;;1016.05;953.15;;;;;;;7.71;65.36;103211.88;678873;28;146863;-69
2021/12/18 01:52:54;;;;;;;1029.82;966.30;;;;;;;7.69;65.17;103210.22;675979;28;134774;-70
2021/12/18 01:53:17;;;;;;;1016.70;953.45;;;;;;;7.69;64.99;103207.53;679371;29;46565;-70
2021/12/18 01:53:39;;;;;;;992.97;932.05;;;;;;;7.68;64.90;103212.06;678892;29;68461;-70
2021/12/18 01:54:00;;;;;;;1007.13;946.00;;;;;;;7.63;65.08;103207.94;680456;29;45482;-69
2021/12/18 01:54:22;;;;;;;1023.10;960.60;;;;;;;7.66;65.02;103211.28;680971;29;1397;-70
2021/12/18 01:54:45;;;;;;;1014.63;952.13;;;;;;;7.66;65.02;103211.28;680717;29;23471;-70